Clarks Mills, New York
Current Conditions -  °F | °C
As of 7:53 AM on Saturday 25 Oct 2014 (Local Time) from KGFL Reporting Station
Moderate Fog Moderate Fog  
Wind Chill: 41°   Ceiling: 200
Heat Index: 41°   Visibility: 0.25mi
Dew Point: 40°   Wind: 0mph
Humidity: 96%   Direction: NA
Pressure: 29.81"   Gusts: NA
Location:  43.09°N, 73.5018°W
Report Text: KGFL 251153Z AUTO 00000KT 1/4SM FG VV002 05/04 A2981 RMK AO2 SLP101 70003 T00500044 10061 20044 52001
Loading
Personal Weather Stations






























Interactive Weather Map
Tropical Storm Tracking
New forecast layout! Learn more

10-Day Weather Forecast

Advertisements
Track Severe Weather on mobile